Terminal Aerodrome Forecast
Issued by NWS

Home | Current Version | Previous Version | Text Only | Print | Product List | Glossary On
Versions: 1 2 3 4 5 6 7 8 9 10 11 12 13 14 15 16 17 18 19 20
000
FTUS41 KBTV 300528
TAFSLK
TAF
KSLK 300528Z 3006/3106 VRB03KT P6SM SCT250
     FM300900 21005KT P6SM SCT250
     FM301100 21011KT P6SM SCT100 BKN150
     FM301600 22015G25KT P6SM BKN050
     FM301900 22015G25KT P6SM -SHRA OVC050
     FM310100 27010KT 5SM -SHRA BR SCT015 OVC035=

USA.gov is the U.S. government's official web portal to all federal, state and local government web resources and services.